createdAt,value
2018-11-04T00:01:36.451Z,25.23
2018-11-04T00:04:04.545Z,28.27
2018-11-04T00:06:32.661Z,25.47
2018-11-04T00:09:00.754Z,25.30
2018-11-04T00:11:28.918Z,26.13
2018-11-04T00:13:57.013Z,25.50
2018-11-04T00:16:25.138Z,25.60
2018-11-04T00:18:53.242Z,24.80
2018-11-04T00:21:21.415Z,25.83
2018-11-04T00:23:49.559Z,25.33
2018-11-04T00:26:17.661Z,24.47
2018-11-04T00:28:45.769Z,25.63
2018-11-04T00:31:14.574Z,25.47
2018-11-04T00:33:42.701Z,25.47
2018-11-04T00:36:10.801Z,24.80
2018-11-04T00:38:38.930Z,24.93
2018-11-04T00:41:07.245Z,25.70
2018-11-04T00:43:35.577Z,24.90
2018-11-04T00:46:03.706Z,24.60
2018-11-04T00:48:31.870Z,23.70
2018-11-04T00:51:00.004Z,25.50
2018-11-04T00:53:28.120Z,25.40
2018-11-04T00:55:56.445Z,22.50
2018-11-04T00:58:25.512Z,23.10
2018-11-04T01:00:54.024Z,21.33
2018-11-04T01:03:22.158Z,23.40
2018-11-04T01:05:50.303Z,22.60
2018-11-04T01:08:18.430Z,20.97
2018-11-04T01:10:49.571Z,23.53
2018-11-04T01:13:17.721Z,21.67
2018-11-04T01:15:45.949Z,21.70
2018-11-04T01:18:14.185Z,21.27
2018-11-04T01:20:42.473Z,22.33
2018-11-04T01:23:10.613Z,23.60
2018-11-04T01:25:38.729Z,22.47
2018-11-04T01:28:06.834Z,22.20
2018-11-04T01:30:35.419Z,23.90
2018-11-04T01:33:03.757Z,24.40
2018-11-04T01:35:31.877Z,24.40
2018-11-04T01:38:00.025Z,22.23
2018-11-04T01:40:28.199Z,23.20
2018-11-04T01:42:56.382Z,23.60
2018-11-04T01:45:24.504Z,22.27
2018-11-04T01:47:52.684Z,23.63
2018-11-04T01:50:20.835Z,23.73
2018-11-04T01:52:49.032Z,23.90
2018-11-04T01:55:17.213Z,24.03
2018-11-04T01:57:45.469Z,23.00
2018-11-04T02:00:17.678Z,23.80
2018-11-04T02:02:46.478Z,25.20
2018-11-04T02:05:17.755Z,23.73
2018-11-04T02:07:45.928Z,23.90
2018-11-04T02:10:16.097Z,24.33
2018-11-04T02:12:44.266Z,22.90
2018-11-04T02:15:13.161Z,24.50
2018-11-04T02:17:41.393Z,22.30
2018-11-04T02:20:10.930Z,22.50
2018-11-04T02:22:39.542Z,22.80
2018-11-04T02:25:08.539Z,22.97
2018-11-04T02:27:36.750Z,21.10
2018-11-04T02:30:05.946Z,21.20
2018-11-04T02:32:34.125Z,19.87
2018-11-04T02:35:02.330Z,20.77
2018-11-04T02:37:30.507Z,21.60
2018-11-04T02:39:58.673Z,20.30
2018-11-04T02:42:26.814Z,21.00
2018-11-04T02:44:54.967Z,19.87
2018-11-04T02:47:23.074Z,19.20
2018-11-04T02:49:55.589Z,20.57
2018-11-04T02:52:23.698Z,20.17
2018-11-04T02:54:51.848Z,20.00
2018-11-04T02:57:19.955Z,19.97
2018-11-04T02:59:48.118Z,19.73
2018-11-04T03:02:16.252Z,21.07
2018-11-04T03:04:44.358Z,23.00
2018-11-04T03:07:12.551Z,22.93
2018-11-04T03:09:40.661Z,22.47
2018-11-04T03:12:08.757Z,23.37
2018-11-04T03:14:36.866Z,21.40
2018-11-04T03:17:05.138Z,20.40
2018-11-04T03:19:33.252Z,22.67
2018-11-04T03:22:01.378Z,20.73
2018-11-04T03:24:29.813Z,23.27
2018-11-04T03:26:57.893Z,20.00
2018-11-04T03:29:26.064Z,21.47
2018-11-04T03:31:54.192Z,19.57
2018-11-04T03:34:22.281Z,19.27
2018-11-04T03:36:50.419Z,20.80
2018-11-04T03:39:18.534Z,20.23
2018-11-04T03:41:46.653Z,21.60
2018-11-04T03:44:14.762Z,20.37
2018-11-04T03:46:42.898Z,20.87
2018-11-04T03:49:10.997Z,20.67
2018-11-04T03:51:39.094Z,21.50
2018-11-04T03:54:07.222Z,21.77
2018-11-04T03:56:35.430Z,22.07
2018-11-04T03:59:03.561Z,22.10
2018-11-04T04:01:31.679Z,23.40
2018-11-04T04:03:59.802Z,24.53
2018-11-04T04:06:27.906Z,21.60
2018-11-04T04:08:56.026Z,21.93
2018-11-04T04:11:24.129Z,22.67
2018-11-04T04:13:52.233Z,20.20
2018-11-04T04:16:20.350Z,21.87
2018-11-04T04:18:48.462Z,20.47
2018-11-04T04:21:16.578Z,19.83
2018-11-04T04:23:44.685Z,20.90
2018-11-04T04:26:12.817Z,19.80
2018-11-04T04:28:41.179Z,18.90
2018-11-04T04:31:09.389Z,21.40
2018-11-04T04:33:37.493Z,19.93
2018-11-04T04:36:05.888Z,22.90
2018-11-04T04:38:34.021Z,22.67
2018-11-04T04:41:02.136Z,25.60
2018-11-04T04:43:30.230Z,27.07
2018-11-04T04:45:58.350Z,24.00
2018-11-04T04:48:26.465Z,22.77
2018-11-04T04:50:54.570Z,23.87
2018-11-04T04:53:24.649Z,23.90
2018-11-04T04:55:53.761Z,24.97
2018-11-04T04:58:21.981Z,22.10
2018-11-04T05:00:50.100Z,28.13
2018-11-04T05:03:18.201Z,29.60
2018-11-04T05:05:51.725Z,29.80
2018-11-04T05:08:19.845Z,29.90
2018-11-04T05:10:48.138Z,28.73
2018-11-04T05:13:16.240Z,22.00
2018-11-04T05:15:44.674Z,25.00
2018-11-04T05:18:12.776Z,33.63
2018-11-04T05:20:40.910Z,23.83
2018-11-04T05:23:09.010Z,24.17
2018-11-04T05:25:37.138Z,24.93
2018-11-04T05:28:05.677Z,32.33
2018-11-04T05:30:33.871Z,26.70
2018-11-04T05:33:01.973Z,21.30
2018-11-04T05:35:30.078Z,21.80
2018-11-04T05:37:58.218Z,18.27
2018-11-04T05:40:26.376Z,18.00
2018-11-04T05:42:54.517Z,18.30
2018-11-04T05:45:22.683Z,17.47
2018-11-04T05:47:50.847Z,18.40
2018-11-04T05:50:21.044Z,20.53
2018-11-04T05:52:49.168Z,22.40
2018-11-04T05:55:17.313Z,20.07
2018-11-04T05:57:45.442Z,22.10
2018-11-04T06:00:13.595Z,21.73
2018-11-04T06:02:41.735Z,20.30
2018-11-04T06:05:10.855Z,24.93
2018-11-04T06:07:39.097Z,26.30
2018-11-04T06:10:07.258Z,24.33
2018-11-04T06:12:35.737Z,29.13
2018-11-04T06:15:04.049Z,29.00
2018-11-04T06:17:32.174Z,26.83
2018-11-04T06:20:00.321Z,23.50
2018-11-04T06:22:28.449Z,24.27
2018-11-04T06:24:56.589Z,22.80
2018-11-04T06:27:24.730Z,22.50
2018-11-04T06:29:52.914Z,21.40
2018-11-04T06:32:21.064Z,21.67
2018-11-04T06:34:49.210Z,22.77
2018-11-04T06:37:17.388Z,20.67
2018-11-04T06:39:45.482Z,21.57
2018-11-04T06:42:13.593Z,22.00
2018-11-04T06:44:41.697Z,21.30
2018-11-04T06:47:09.876Z,21.20
2018-11-04T06:49:37.913Z,20.80
2018-11-04T06:52:06.398Z,19.37
2018-11-04T06:54:34.563Z,19.13
2018-11-04T06:57:02.676Z,20.20
2018-11-04T06:59:30.768Z,19.03
2018-11-04T07:01:58.877Z,20.00
2018-11-04T07:04:28.405Z,20.67
2018-11-04T07:06:56.636Z,21.17
2018-11-04T07:09:24.741Z,22.03
2018-11-04T07:11:52.856Z,21.77
2018-11-04T07:14:21.316Z,21.00
2018-11-04T07:16:49.429Z,19.20
2018-11-04T07:19:17.633Z,17.03
2018-11-04T07:21:45.749Z,17.17
2018-11-04T07:24:13.844Z,19.23
2018-11-04T07:26:42.006Z,18.67
2018-11-04T07:29:10.273Z,16.00
2018-11-04T07:31:38.381Z,17.50
2018-11-04T07:34:06.637Z,16.43
2018-11-04T07:36:34.914Z,14.97
2018-11-04T07:39:03.594Z,14.10
2018-11-04T07:41:31.738Z,13.67
2018-11-04T07:43:59.874Z,12.53
2018-11-04T07:46:28.012Z,10.60
2018-11-04T07:48:56.148Z,10.03
2018-11-04T07:51:24.362Z,7.67
2018-11-04T07:53:52.456Z,12.27
2018-11-04T07:56:20.611Z,10.00
2018-11-04T07:58:48.766Z,10.10
2018-11-04T08:01:16.904Z,9.60
2018-11-04T08:03:45.039Z,9.20
2018-11-04T08:06:13.177Z,7.40
2018-11-04T08:08:41.317Z,6.17
2018-11-04T08:11:09.448Z,5.87
2018-11-04T08:13:37.635Z,5.70
2018-11-04T08:16:05.729Z,5.20
2018-11-04T08:18:33.882Z,5.07
2018-11-04T08:21:02.023Z,3.83
2018-11-04T08:23:30.165Z,4.33
2018-11-04T08:25:58.299Z,4.23
2018-11-04T08:28:26.429Z,4.17
2018-11-04T08:30:54.549Z,4.30
2018-11-04T08:33:22.677Z,4.07
2018-11-04T08:35:50.810Z,3.80
2018-11-04T08:38:18.961Z,4.40
2018-11-04T08:40:47.105Z,4.73
2018-11-04T08:43:15.230Z,4.70
2018-11-04T08:45:43.471Z,4.63
2018-11-04T08:48:11.513Z,3.90
2018-11-04T08:50:39.641Z,4.20
2018-11-04T08:53:07.809Z,4.00
2018-11-04T08:55:35.925Z,4.03
2018-11-04T08:58:04.057Z,3.60
2018-11-04T09:00:32.177Z,3.47
2018-11-04T09:03:00.354Z,3.67
2018-11-04T09:05:28.482Z,4.40
2018-11-04T09:07:56.610Z,4.00
2018-11-04T09:10:24.733Z,4.03
2018-11-04T09:12:52.868Z,3.70
2018-11-04T09:15:21.021Z,4.30
2018-11-04T09:17:49.152Z,4.80
2018-11-04T09:20:17.549Z,4.43
2018-11-04T09:22:45.756Z,4.97
2018-11-04T09:25:14.218Z,4.43
2018-11-04T09:27:42.349Z,4.77
2018-11-04T09:30:12.897Z,3.90
2018-11-04T09:32:41.050Z,4.40
2018-11-04T09:35:10.152Z,4.10
2018-11-04T09:37:38.006Z,3.90
2018-11-04T09:40:07.468Z,4.27
2018-11-04T09:42:35.614Z,4.43
2018-11-04T09:45:03.720Z,3.90
2018-11-04T09:47:31.870Z,4.40
2018-11-04T09:50:00.056Z,4.43
2018-11-04T09:52:28.089Z,4.03
2018-11-04T09:54:56.176Z,4.40
2018-11-04T09:57:24.277Z,4.97
2018-11-04T09:59:52.372Z,5.27
2018-11-04T10:02:20.572Z,5.77
2018-11-04T10:04:48.663Z,5.97
2018-11-04T10:07:16.838Z,5.97
2018-11-04T10:09:44.898Z,6.23
2018-11-04T10:12:12.973Z,5.90
2018-11-04T10:14:41.072Z,6.60
2018-11-04T10:17:09.173Z,6.43
2018-11-04T10:19:37.455Z,6.30
2018-11-04T10:22:05.529Z,6.17
2018-11-04T10:24:33.638Z,6.80
2018-11-04T10:27:01.743Z,6.80
2018-11-04T10:29:29.844Z,6.03
2018-11-04T10:31:57.950Z,6.20
2018-11-04T10:34:26.054Z,6.70
2018-11-04T10:36:54.200Z,7.10
2018-11-04T10:39:22.326Z,7.57
2018-11-04T10:41:50.421Z,7.40
2018-11-04T10:44:18.521Z,7.00
2018-11-04T10:46:46.632Z,7.90
2018-11-04T10:49:14.808Z,7.33
2018-11-04T10:51:42.824Z,7.50
2018-11-04T10:54:10.927Z,8.43
2018-11-04T10:56:39.014Z,8.50
2018-11-04T10:59:07.107Z,8.50
2018-11-04T11:01:35.209Z,9.07
2018-11-04T11:04:03.309Z,8.17
2018-11-04T11:06:31.433Z,9.30
2018-11-04T11:08:59.542Z,9.20
2018-11-04T11:11:27.626Z,8.00
2018-11-04T11:13:55.729Z,8.13
2018-11-04T11:16:23.813Z,8.37
2018-11-04T11:18:51.913Z,9.20
2018-11-04T11:21:19.998Z,8.33
2018-11-04T11:23:48.155Z,11.20
2018-11-04T11:26:16.239Z,8.80
2018-11-04T11:28:44.365Z,10.57
2018-11-04T11:31:12.462Z,13.13
2018-11-04T11:33:40.570Z,8.30
2018-11-04T11:36:08.678Z,8.50
2018-11-04T11:38:36.804Z,8.77
2018-11-04T11:41:05.000Z,8.93
2018-11-04T11:43:33.137Z,9.33
2018-11-04T11:46:01.250Z,8.80
2018-11-04T11:48:29.393Z,9.10
2018-11-04T11:50:57.520Z,15.27
2018-11-04T11:53:25.650Z,10.50
2018-11-04T11:55:53.862Z,9.80
2018-11-04T11:58:22.042Z,10.60
2018-11-04T12:00:50.176Z,11.03
2018-11-04T12:03:18.302Z,10.20
2018-11-04T12:05:46.436Z,10.07
2018-11-04T12:08:14.586Z,11.67
2018-11-04T12:10:42.731Z,11.37
2018-11-04T12:13:10.878Z,10.97
2018-11-04T12:15:39.015Z,11.47
2018-11-04T12:18:07.187Z,12.13
2018-11-04T12:20:35.396Z,11.93
2018-11-04T12:23:03.537Z,11.87
2018-11-04T12:25:32.064Z,15.20
2018-11-04T12:28:00.249Z,11.20
2018-11-04T12:30:28.376Z,9.90
2018-11-04T12:32:56.516Z,10.43
2018-11-04T12:35:24.758Z,10.23
2018-11-04T12:37:52.770Z,10.20
2018-11-04T12:40:20.893Z,9.43
2018-11-04T12:42:49.002Z,10.87
2018-11-04T12:45:17.105Z,9.20
2018-11-04T12:47:45.209Z,9.83
2018-11-04T12:50:13.495Z,10.70
2018-11-04T12:52:41.614Z,9.37
2018-11-04T12:55:10.139Z,12.20
2018-11-04T12:57:38.254Z,10.80
2018-11-04T13:00:10.261Z,10.57
2018-11-04T13:02:38.415Z,12.40
2018-11-04T13:05:07.345Z,10.23
2018-11-04T13:07:35.522Z,11.20
2018-11-04T13:10:03.927Z,13.10
2018-11-04T13:12:32.009Z,13.60
2018-11-04T13:15:00.146Z,10.27
2018-11-04T13:17:28.781Z,11.17
2018-11-04T13:19:57.004Z,9.83
2018-11-04T13:22:25.156Z,9.27
2018-11-04T13:24:53.290Z,9.13
2018-11-04T13:27:21.394Z,9.40
2018-11-04T13:29:49.505Z,10.00
2018-11-04T13:32:17.615Z,9.90
2018-11-04T13:34:45.721Z,9.80
2018-11-04T13:37:13.829Z,10.40
2018-11-04T13:39:41.922Z,10.10
2018-11-04T13:42:10.013Z,10.80
2018-11-04T13:44:38.118Z,8.70
2018-11-04T13:47:06.252Z,8.80
2018-11-04T13:49:34.534Z,9.03
2018-11-04T13:52:02.524Z,10.07
2018-11-04T13:54:30.619Z,9.20
2018-11-04T13:56:58.717Z,9.00
2018-11-04T13:59:26.814Z,8.83
2018-11-04T14:01:54.923Z,9.00
2018-11-04T14:04:23.010Z,9.60
2018-11-04T14:06:51.101Z,8.23
2018-11-04T14:09:19.190Z,9.10
2018-11-04T14:11:47.335Z,8.97
2018-11-04T14:14:15.438Z,9.43
2018-11-04T14:16:43.760Z,9.20
2018-11-04T14:19:11.858Z,8.63
2018-11-04T14:21:39.982Z,9.17
2018-11-04T14:24:08.110Z,8.90
2018-11-04T14:26:36.213Z,8.43
2018-11-04T14:29:04.302Z,11.17
2018-11-04T14:31:32.494Z,9.30
2018-11-04T14:34:00.623Z,9.37
2018-11-04T14:36:28.726Z,9.10
2018-11-04T14:38:56.861Z,8.37
2018-11-04T14:41:24.993Z,9.03
2018-11-04T14:43:53.106Z,8.17
2018-11-04T14:46:21.236Z,8.80
2018-11-04T14:48:49.353Z,7.70
2018-11-04T14:51:17.477Z,7.20
2018-11-04T14:53:45.640Z,8.30
2018-11-04T14:56:13.809Z,8.00
2018-11-04T14:58:41.930Z,8.00
2018-11-04T15:01:10.196Z,8.10
2018-11-04T15:03:38.203Z,9.77
2018-11-04T15:06:06.369Z,11.30
2018-11-04T15:08:34.538Z,11.57
2018-11-04T15:11:02.763Z,10.17
2018-11-04T15:13:30.893Z,9.30
2018-11-04T15:15:59.066Z,8.40
2018-11-04T15:18:27.251Z,8.90
2018-11-04T15:20:55.377Z,8.10
2018-11-04T15:23:23.513Z,7.77
2018-11-04T15:25:51.693Z,7.73
2018-11-04T15:28:19.854Z,10.93
2018-11-04T15:30:48.014Z,9.33
2018-11-04T15:33:16.160Z,9.27
2018-11-04T15:35:44.308Z,9.07
2018-11-04T15:38:12.541Z,9.90
2018-11-04T15:40:40.807Z,29.60
2018-11-04T15:43:09.065Z,13.90
2018-11-04T15:45:37.196Z,15.00
2018-11-04T15:48:05.330Z,12.07
2018-11-04T15:50:33.451Z,11.43
2018-11-04T15:53:01.577Z,9.77
2018-11-04T15:55:29.745Z,9.80
2018-11-04T15:57:57.875Z,10.17
2018-11-04T16:00:25.996Z,8.40
2018-11-04T16:02:54.123Z,9.03
2018-11-04T16:05:22.309Z,8.80
2018-11-04T16:07:50.396Z,9.30
2018-11-04T16:10:18.506Z,9.10
2018-11-04T16:12:46.621Z,8.40
2018-11-04T16:15:16.134Z,8.40
2018-11-04T16:17:44.900Z,8.30
2018-11-04T16:20:14.310Z,9.00
2018-11-04T16:22:43.097Z,7.90
2018-11-04T16:25:11.778Z,7.50
2018-11-04T16:27:40.464Z,8.00
2018-11-04T16:30:09.957Z,8.40
2018-11-04T16:32:38.340Z,7.50
2018-11-04T16:35:09.165Z,7.20
2018-11-04T16:37:37.461Z,8.37
2018-11-04T16:40:05.973Z,8.50
2018-11-04T16:42:34.097Z,9.20
2018-11-04T16:45:02.336Z,9.37
2018-11-04T16:47:30.541Z,8.87
2018-11-04T16:49:58.674Z,9.47
2018-11-04T16:52:26.784Z,8.13
2018-11-04T16:54:54.930Z,9.07
2018-11-04T16:57:23.042Z,8.30
2018-11-04T16:59:51.178Z,9.10
2018-11-04T17:02:19.296Z,8.83
2018-11-04T17:04:47.564Z,9.10
2018-11-04T17:07:15.572Z,9.30
2018-11-04T17:09:43.702Z,8.97
2018-11-04T17:12:11.809Z,9.03
2018-11-04T17:14:39.929Z,9.53
2018-11-04T17:17:08.038Z,9.30
2018-11-04T17:19:36.158Z,8.67
2018-11-04T17:22:04.290Z,8.87
2018-11-04T17:24:32.426Z,8.70
2018-11-04T17:27:00.686Z,9.20
2018-11-04T17:29:28.813Z,8.67
2018-11-04T17:31:56.958Z,8.40
2018-11-04T17:34:25.095Z,8.63
2018-11-04T17:36:53.218Z,9.83
2018-11-04T17:39:21.394Z,9.23
2018-11-04T17:41:49.550Z,9.67
2018-11-04T17:44:17.741Z,8.77
2018-11-04T17:46:45.858Z,8.93
2018-11-04T17:49:14.003Z,8.43
2018-11-04T17:51:42.134Z,7.93
2018-11-04T17:54:10.538Z,8.40
2018-11-04T17:56:38.614Z,7.77
2018-11-04T17:59:06.764Z,8.07
2018-11-04T18:01:34.913Z,8.73
2018-11-04T18:04:03.190Z,7.97
2018-11-04T18:06:31.454Z,7.63
2018-11-04T18:08:59.517Z,7.60
2018-11-04T18:11:27.668Z,7.00
2018-11-04T18:13:55.899Z,7.90
2018-11-04T18:16:23.978Z,8.20
2018-11-04T18:18:52.112Z,10.47
2018-11-04T18:21:20.264Z,12.00
2018-11-04T18:23:48.423Z,10.20
2018-11-04T18:26:16.681Z,11.37
2018-11-04T18:28:44.786Z,11.07
2018-11-04T18:31:12.952Z,11.10
2018-11-04T18:33:41.116Z,12.10
2018-11-04T18:36:09.289Z,11.53
2018-11-04T18:38:37.433Z,11.80
2018-11-04T18:41:05.581Z,12.90
2018-11-04T18:43:33.762Z,12.70
2018-11-04T18:46:01.847Z,11.07
2018-11-04T18:48:29.995Z,11.23
2018-11-04T18:50:58.121Z,11.57
2018-11-04T18:53:26.246Z,11.10
2018-11-04T18:55:54.394Z,10.90
2018-11-04T18:58:22.514Z,10.80
2018-11-04T19:00:50.653Z,11.20
2018-11-04T19:03:18.828Z,10.97
2018-11-04T19:05:46.962Z,11.20
2018-11-04T19:08:15.129Z,11.70
2018-11-04T19:10:43.265Z,11.03
2018-11-04T19:13:11.382Z,10.60
2018-11-04T19:15:39.514Z,11.10
2018-11-04T19:18:07.626Z,12.30
2018-11-04T19:20:35.737Z,11.80
2018-11-04T19:23:03.848Z,12.50
2018-11-04T19:25:31.970Z,13.03
2018-11-04T19:28:00.113Z,12.90
2018-11-04T19:30:28.326Z,14.03
2018-11-04T19:32:56.438Z,15.27
2018-11-04T19:35:24.554Z,15.40
2018-11-04T19:37:53.741Z,16.57
2018-11-04T19:40:21.866Z,15.90
2018-11-04T19:42:50.039Z,16.00
2018-11-04T19:45:18.123Z,15.33
2018-11-04T19:47:46.250Z,16.33
2018-11-04T19:50:14.349Z,14.50
2018-11-04T19:52:42.785Z,15.50
2018-11-04T19:55:11.653Z,15.77
2018-11-04T19:57:39.770Z,16.00
2018-11-04T20:00:09.397Z,14.70
2018-11-04T20:02:37.519Z,17.60
2018-11-04T20:05:08.837Z,17.13
2018-11-04T20:07:36.921Z,15.87
2018-11-04T20:10:08.033Z,15.27
2018-11-04T20:12:41.590Z,15.47
2018-11-04T20:15:09.698Z,16.67
2018-11-04T20:17:37.805Z,14.97
2018-11-04T20:20:12.440Z,17.30
2018-11-04T20:22:41.036Z,18.07
2018-11-04T20:25:14.515Z,17.30
2018-11-04T20:27:42.645Z,16.70
2018-11-04T20:30:11.901Z,18.87
2018-11-04T20:32:45.527Z,19.27
2018-11-04T20:35:14.301Z,15.50
2018-11-04T20:37:42.788Z,13.97
2018-11-04T20:40:16.298Z,15.90
2018-11-04T20:42:44.462Z,16.70
2018-11-04T20:45:12.785Z,18.20
2018-11-04T20:47:46.224Z,16.40
2018-11-04T20:50:19.557Z,17.70
2018-11-04T20:52:47.686Z,15.37
2018-11-04T20:55:15.973Z,14.67
2018-11-04T20:57:46.998Z,18.67
2018-11-04T21:00:15.109Z,14.57
2018-11-04T21:02:43.964Z,14.70
2018-11-04T21:05:11.970Z,14.10
2018-11-04T21:07:40.065Z,13.37
2018-11-04T21:10:09.383Z,13.63
2018-11-04T21:12:37.342Z,13.30
2018-11-04T21:15:05.947Z,13.20
2018-11-04T21:17:34.040Z,14.30
2018-11-04T21:20:02.165Z,12.77
2018-11-04T21:22:30.268Z,14.47
2018-11-04T21:24:58.390Z,14.87
2018-11-04T21:27:26.513Z,16.57
2018-11-04T21:29:54.732Z,16.47
2018-11-04T21:32:22.769Z,16.83
2018-11-04T21:34:54.297Z,17.93
2018-11-04T21:37:22.881Z,22.00
2018-11-04T21:39:51.178Z,21.77
2018-11-04T21:42:19.414Z,24.83
2018-11-04T21:44:47.599Z,24.20
2018-11-04T21:47:15.666Z,31.80
2018-11-04T21:49:43.866Z,25.67
2018-11-04T21:52:12.009Z,23.47
2018-11-04T21:54:40.152Z,20.33
2018-11-04T21:57:08.300Z,24.23
2018-11-04T21:59:36.511Z,27.70
2018-11-04T22:02:05.225Z,21.43
2018-11-04T22:04:34.748Z,20.93
2018-11-04T22:07:03.861Z,21.03
2018-11-04T22:09:32.027Z,26.17
2018-11-04T22:12:00.177Z,20.40
2018-11-04T22:14:28.354Z,19.50
2018-11-04T22:16:56.497Z,18.00
2018-11-04T22:19:24.628Z,26.87
2018-11-04T22:21:52.789Z,26.27
2018-11-04T22:24:20.941Z,14.90
2018-11-04T22:26:49.100Z,14.47
2018-11-04T22:29:17.243Z,13.63
2018-11-04T22:31:45.378Z,12.50
2018-11-04T22:34:13.535Z,18.10
2018-11-04T22:36:41.725Z,21.50
2018-11-04T22:39:10.133Z,12.17
2018-11-04T22:41:38.287Z,17.17
2018-11-04T22:44:06.438Z,14.83
2018-11-04T22:46:34.561Z,13.77
2018-11-04T22:49:02.676Z,11.30
2018-11-04T22:51:30.814Z,18.57
2018-11-04T22:53:58.935Z,20.47
2018-11-04T22:56:27.129Z,10.53
2018-11-04T22:58:55.196Z,18.47
2018-11-04T23:01:23.389Z,23.33
2018-11-04T23:03:51.442Z,21.97
2018-11-04T23:06:19.561Z,24.50
2018-11-04T23:08:47.681Z,26.70
2018-11-04T23:11:15.813Z,20.27
2018-11-04T23:13:43.934Z,21.37
2018-11-04T23:16:12.069Z,15.57
2018-11-04T23:18:40.251Z,21.93
2018-11-04T23:21:08.310Z,18.87
2018-11-04T23:23:36.404Z,19.77
2018-11-04T23:26:04.972Z,20.20
2018-11-04T23:28:33.075Z,16.40
2018-11-04T23:31:01.201Z,14.70
2018-11-04T23:33:29.320Z,16.13
2018-11-04T23:35:57.443Z,13.20
2018-11-04T23:38:25.624Z,14.13
2018-11-04T23:40:53.761Z,16.20
2018-11-04T23:43:21.904Z,15.43
2018-11-04T23:45:50.058Z,21.47
2018-11-04T23:48:18.895Z,16.00
2018-11-04T23:50:47.054Z,14.87
2018-11-04T23:53:15.209Z,16.90
2018-11-04T23:55:43.361Z,18.70
2018-11-04T23:58:11.514Z,12.77
